sensor_id;sensor_type;location;lat;lon;timestamp;P1;durP1;ratioP1;P2;durP2;ratioP2
34872;SDS011;21084;51.098;14.506;2022-12-26T00:00:57;16.25;;;9.05;;
34872;SDS011;21084;51.098;14.506;2022-12-26T00:03:32;17.42;;;9.02;;
34872;SDS011;21084;51.098;14.506;2022-12-26T00:06:04;18.42;;;8.90;;
34872;SDS011;21084;51.098;14.506;2022-12-26T00:08:39;24.98;;;10.00;;
34872;SDS011;21084;51.098;14.506;2022-12-26T00:11:09;19.55;;;9.85;;
34872;SDS011;21084;51.098;14.506;2022-12-26T00:13:38;22.00;;;9.88;;
34872;SDS011;21084;51.098;14.506;2022-12-26T00:16:08;24.03;;;10.23;;
34872;SDS011;21084;51.098;14.506;2022-12-26T00:18:38;18.85;;;9.32;;
34872;SDS011;21084;51.098;14.506;2022-12-26T00:21:09;18.38;;;9.82;;
34872;SDS011;21084;51.098;14.506;2022-12-26T00:23:40;19.73;;;10.13;;
34872;SDS011;21084;51.098;14.506;2022-12-26T00:26:09;17.53;;;9.37;;
34872;SDS011;21084;51.098;14.506;2022-12-26T00:28:39;16.38;;;9.25;;
34872;SDS011;21084;51.098;14.506;2022-12-26T00:31:10;25.27;;;10.02;;
34872;SDS011;21084;51.098;14.506;2022-12-26T00:33:41;27.67;;;9.65;;
34872;SDS011;21084;51.098;14.506;2022-12-26T00:36:12;20.17;;;10.65;;
34872;SDS011;21084;51.098;14.506;2022-12-26T00:38:42;21.63;;;10.52;;
34872;SDS011;21084;51.098;14.506;2022-12-26T00:41:12;20.80;;;10.52;;
34872;SDS011;21084;51.098;14.506;2022-12-26T00:43:42;19.88;;;10.60;;
34872;SDS011;21084;51.098;14.506;2022-12-26T00:46:11;18.77;;;10.53;;
34872;SDS011;21084;51.098;14.506;2022-12-26T00:48:40;23.30;;;10.52;;
34872;SDS011;21084;51.098;14.506;2022-12-26T00:51:09;20.80;;;10.23;;
34872;SDS011;21084;51.098;14.506;2022-12-26T00:53:39;19.73;;;11.57;;
34872;SDS011;21084;51.098;14.506;2022-12-26T00:56:08;20.58;;;10.05;;
34872;SDS011;21084;51.098;14.506;2022-12-26T00:58:37;28.50;;;10.77;;
34872;SDS011;21084;51.098;14.506;2022-12-26T01:01:11;18.03;;;9.93;;
34872;SDS011;21084;51.098;14.506;2022-12-26T01:03:41;23.30;;;11.30;;
34872;SDS011;21084;51.098;14.506;2022-12-26T01:06:13;21.35;;;11.15;;
34872;SDS011;21084;51.098;14.506;2022-12-26T01:08:42;22.38;;;11.35;;
34872;SDS011;21084;51.098;14.506;2022-12-26T01:11:12;23.88;;;11.35;;
34872;SDS011;21084;51.098;14.506;2022-12-26T01:13:41;20.60;;;10.82;;
34872;SDS011;21084;51.098;14.506;2022-12-26T01:16:10;21.08;;;10.63;;
34872;SDS011;21084;51.098;14.506;2022-12-26T01:18:39;22.50;;;10.95;;
34872;SDS011;21084;51.098;14.506;2022-12-26T01:21:07;21.35;;;10.38;;
34872;SDS011;21084;51.098;14.506;2022-12-26T01:23:41;21.23;;;10.63;;
34872;SDS011;21084;51.098;14.506;2022-12-26T01:26:09;23.27;;;11.02;;
34872;SDS011;21084;51.098;14.506;2022-12-26T01:28:45;21.52;;;10.82;;
34872;SDS011;21084;51.098;14.506;2022-12-26T01:31:14;21.95;;;10.73;;
34872;SDS011;21084;51.098;14.506;2022-12-26T01:33:42;20.08;;;11.15;;
34872;SDS011;21084;51.098;14.506;2022-12-26T01:36:11;24.35;;;10.90;;
34872;SDS011;21084;51.098;14.506;2022-12-26T01:38:41;21.60;;;11.13;;
34872;SDS011;21084;51.098;14.506;2022-12-26T01:41:11;22.05;;;10.85;;
34872;SDS011;21084;51.098;14.506;2022-12-26T01:43:47;26.65;;;11.45;;
34872;SDS011;21084;51.098;14.506;2022-12-26T01:46:19;21.10;;;11.07;;
34872;SDS011;21084;51.098;14.506;2022-12-26T01:48:50;20.27;;;11.63;;
34872;SDS011;21084;51.098;14.506;2022-12-26T01:51:19;25.45;;;11.70;;
34872;SDS011;21084;51.098;14.506;2022-12-26T01:53:54;25.13;;;11.25;;
34872;SDS011;21084;51.098;14.506;2022-12-26T01:56:45;28.08;;;11.98;;
34872;SDS011;21084;51.098;14.506;2022-12-26T01:59:16;22.35;;;10.18;;
34872;SDS011;21084;51.098;14.506;2022-12-26T02:01:46;24.30;;;11.32;;
34872;SDS011;21084;51.098;14.506;2022-12-26T02:04:17;22.08;;;12.13;;
34872;SDS011;21084;51.098;14.506;2022-12-26T02:07:07;20.30;;;10.98;;
34872;SDS011;21084;51.098;14.506;2022-12-26T02:09:37;22.75;;;12.05;;
34872;SDS011;21084;51.098;14.506;2022-12-26T02:12:07;22.75;;;12.05;;
34872;SDS011;21084;51.098;14.506;2022-12-26T02:15:00;25.67;;;12.50;;
34872;SDS011;21084;51.098;14.506;2022-12-26T02:17:30;19.40;;;11.00;;
34872;SDS011;21084;51.098;14.506;2022-12-26T02:20:00;24.07;;;12.17;;
34872;SDS011;21084;51.098;14.506;2022-12-26T02:22:44;24.58;;;11.45;;
34872;SDS011;21084;51.098;14.506;2022-12-26T02:25:52;24.17;;;10.95;;
34872;SDS011;21084;51.098;14.506;2022-12-26T02:28:40;22.60;;;11.30;;
34872;SDS011;21084;51.098;14.506;2022-12-26T02:31:24;23.08;;;11.07;;
34872;SDS011;21084;51.098;14.506;2022-12-26T02:33:59;19.15;;;11.15;;
34872;SDS011;21084;51.098;14.506;2022-12-26T02:36:40;20.00;;;11.23;;
34872;SDS011;21084;51.098;14.506;2022-12-26T02:39:29;21.80;;;11.52;;
34872;SDS011;21084;51.098;14.506;2022-12-26T02:42:15;22.95;;;11.75;;
34872;SDS011;21084;51.098;14.506;2022-12-26T02:44:56;19.92;;;11.27;;
34872;SDS011;21084;51.098;14.506;2022-12-26T02:48:04;22.08;;;11.55;;
34872;SDS011;21084;51.098;14.506;2022-12-26T02:50:43;24.17;;;11.77;;
34872;SDS011;21084;51.098;14.506;2022-12-26T02:53:38;22.45;;;11.50;;
34872;SDS011;21084;51.098;14.506;2022-12-26T02:56:31;20.70;;;11.70;;
34872;SDS011;21084;51.098;14.506;2022-12-26T02:59:22;21.10;;;11.38;;
34872;SDS011;21084;51.098;14.506;2022-12-26T03:02:24;22.83;;;12.35;;
34872;SDS011;21084;51.098;14.506;2022-12-26T03:05:17;18.20;;;11.32;;
34872;SDS011;21084;51.098;14.506;2022-12-26T03:08:08;21.38;;;11.57;;
34872;SDS011;21084;51.098;14.506;2022-12-26T03:11:02;21.63;;;12.25;;
34872;SDS011;21084;51.098;14.506;2022-12-26T03:13:49;25.98;;;13.00;;
34872;SDS011;21084;51.098;14.506;2022-12-26T03:16:19;24.70;;;13.73;;
34872;SDS011;21084;51.098;14.506;2022-12-26T03:19:08;21.80;;;13.18;;
34872;SDS011;21084;51.098;14.506;2022-12-26T03:21:41;27.50;;;13.18;;
34872;SDS011;21084;51.098;14.506;2022-12-26T03:24:11;23.98;;;13.45;;
34872;SDS011;21084;51.098;14.506;2022-12-26T03:26:45;23.60;;;13.27;;
34872;SDS011;21084;51.098;14.506;2022-12-26T03:29:16;24.70;;;13.02;;
34872;SDS011;21084;51.098;14.506;2022-12-26T03:32:04;21.98;;;13.30;;
34872;SDS011;21084;51.098;14.506;2022-12-26T03:34:36;29.90;;;14.18;;
34872;SDS011;21084;51.098;14.506;2022-12-26T03:37:14;25.90;;;14.32;;
34872;SDS011;21084;51.098;14.506;2022-12-26T03:40:16;25.15;;;14.18;;
34872;SDS011;21084;51.098;14.506;2022-12-26T03:43:11;28.45;;;13.77;;
34872;SDS011;21084;51.098;14.506;2022-12-26T03:46:05;23.88;;;13.02;;
34872;SDS011;21084;51.098;14.506;2022-12-26T03:49:00;27.40;;;14.85;;
34872;SDS011;21084;51.098;14.506;2022-12-26T03:51:54;26.52;;;13.95;;
34872;SDS011;21084;51.098;14.506;2022-12-26T03:54:48;23.92;;;13.77;;
34872;SDS011;21084;51.098;14.506;2022-12-26T03:57:39;27.30;;;13.98;;
34872;SDS011;21084;51.098;14.506;2022-12-26T04:00:32;24.52;;;13.63;;
34872;SDS011;21084;51.098;14.506;2022-12-26T04:03:21;30.98;;;15.95;;
34872;SDS011;21084;51.098;14.506;2022-12-26T04:06:15;24.30;;;14.13;;
34872;SDS011;21084;51.098;14.506;2022-12-26T04:09:06;26.17;;;14.43;;
34872;SDS011;21084;51.098;14.506;2022-12-26T04:11:56;30.23;;;14.00;;
34872;SDS011;21084;51.098;14.506;2022-12-26T04:17:33;29.65;;;14.35;;
34872;SDS011;21084;51.098;14.506;2022-12-26T04:20:25;25.50;;;13.63;;
34872;SDS011;21084;51.098;14.506;2022-12-26T04:22:59;21.90;;;13.30;;
34872;SDS011;21084;51.098;14.506;2022-12-26T04:25:50;23.60;;;13.43;;
34872;SDS011;21084;51.098;14.506;2022-12-26T04:28:43;29.27;;;13.93;;
34872;SDS011;21084;51.098;14.506;2022-12-26T04:31:29;24.13;;;13.32;;
34872;SDS011;21084;51.098;14.506;2022-12-26T04:34:23;24.48;;;14.35;;
34872;SDS011;21084;51.098;14.506;2022-12-26T04:37:17;26.15;;;14.55;;
34872;SDS011;21084;51.098;14.506;2022-12-26T04:40:06;23.85;;;13.10;;
34872;SDS011;21084;51.098;14.506;2022-12-26T04:42:56;26.92;;;13.82;;
34872;SDS011;21084;51.098;14.506;2022-12-26T04:46:04;24.73;;;13.73;;
34872;SDS011;21084;51.098;14.506;2022-12-26T04:48:33;24.33;;;13.65;;
34872;SDS011;21084;51.098;14.506;2022-12-26T04:51:27;28.02;;;13.80;;
34872;SDS011;21084;51.098;14.506;2022-12-26T04:53:56;26.60;;;13.88;;
34872;SDS011;21084;51.098;14.506;2022-12-26T04:56:24;24.60;;;14.02;;
34872;SDS011;21084;51.098;14.506;2022-12-26T04:58:53;27.45;;;13.55;;
34872;SDS011;21084;51.098;14.506;2022-12-26T05:01:22;23.55;;;13.23;;
34872;SDS011;21084;51.098;14.506;2022-12-26T05:04:11;24.95;;;13.20;;
34872;SDS011;21084;51.098;14.506;2022-12-26T05:06:58;23.02;;;12.88;;
34872;SDS011;21084;51.098;14.506;2022-12-26T05:09:45;26.38;;;13.20;;
34872;SDS011;21084;51.098;14.506;2022-12-26T05:12:16;23.58;;;12.82;;
34872;SDS011;21084;51.098;14.506;2022-12-26T05:14:45;28.33;;;13.80;;
34872;SDS011;21084;51.098;14.506;2022-12-26T05:17:15;24.52;;;13.98;;
34872;SDS011;21084;51.098;14.506;2022-12-26T05:20:02;24.15;;;13.80;;
34872;SDS011;21084;51.098;14.506;2022-12-26T05:22:48;23.35;;;13.70;;
34872;SDS011;21084;51.098;14.506;2022-12-26T05:25:35;24.15;;;13.63;;
34872;SDS011;21084;51.098;14.506;2022-12-26T05:28:25;28.40;;;13.90;;
34872;SDS011;21084;51.098;14.506;2022-12-26T05:31:10;24.60;;;13.38;;
34872;SDS011;21084;51.098;14.506;2022-12-26T05:33:42;24.83;;;13.77;;
34872;SDS011;21084;51.098;14.506;2022-12-26T05:36:29;27.58;;;15.95;;
34872;SDS011;21084;51.098;14.506;2022-12-26T05:39:00;27.63;;;14.57;;
34872;SDS011;21084;51.098;14.506;2022-12-26T05:41:29;29.38;;;14.32;;
34872;SDS011;21084;51.098;14.506;2022-12-26T05:43:57;29.08;;;14.82;;
34872;SDS011;21084;51.098;14.506;2022-12-26T05:46:26;28.60;;;14.80;;
34872;SDS011;21084;51.098;14.506;2022-12-26T05:48:57;25.38;;;15.02;;
34872;SDS011;21084;51.098;14.506;2022-12-26T05:51:25;28.85;;;15.35;;
34872;SDS011;21084;51.098;14.506;2022-12-26T05:53:53;30.70;;;15.18;;
34872;SDS011;21084;51.098;14.506;2022-12-26T05:56:22;24.73;;;14.73;;
34872;SDS011;21084;51.098;14.506;2022-12-26T05:58:53;26.90;;;14.32;;
34872;SDS011;21084;51.098;14.506;2022-12-26T06:01:22;24.75;;;14.15;;
34872;SDS011;21084;51.098;14.506;2022-12-26T06:03:52;26.00;;;13.80;;
34872;SDS011;21084;51.098;14.506;2022-12-26T06:06:23;34.33;;;17.35;;
34872;SDS011;21084;51.098;14.506;2022-12-26T06:08:54;34.08;;;17.92;;
34872;SDS011;21084;51.098;14.506;2022-12-26T06:11:24;35.10;;;17.25;;
34872;SDS011;21084;51.098;14.506;2022-12-26T06:13:53;33.67;;;18.02;;
34872;SDS011;21084;51.098;14.506;2022-12-26T06:16:22;37.40;;;18.80;;
34872;SDS011;21084;51.098;14.506;2022-12-26T06:18:52;33.03;;;17.13;;
34872;SDS011;21084;51.098;14.506;2022-12-26T06:21:22;29.27;;;16.15;;
34872;SDS011;21084;51.098;14.506;2022-12-26T06:23:52;30.40;;;16.42;;
34872;SDS011;21084;51.098;14.506;2022-12-26T06:26:20;29.90;;;15.45;;
34872;SDS011;21084;51.098;14.506;2022-12-26T06:28:49;24.90;;;13.95;;
34872;SDS011;21084;51.098;14.506;2022-12-26T06:31:18;26.05;;;14.55;;
34872;SDS011;21084;51.098;14.506;2022-12-26T06:33:48;29.55;;;15.30;;
34872;SDS011;21084;51.098;14.506;2022-12-26T06:36:19;25.73;;;14.05;;
34872;SDS011;21084;51.098;14.506;2022-12-26T06:38:51;26.58;;;13.57;;
34872;SDS011;21084;51.098;14.506;2022-12-26T06:41:23;25.77;;;14.20;;
34872;SDS011;21084;51.098;14.506;2022-12-26T06:43:52;21.30;;;12.25;;
34872;SDS011;21084;51.098;14.506;2022-12-26T06:46:22;24.52;;;13.18;;
34872;SDS011;21084;51.098;14.506;2022-12-26T06:48:52;24.65;;;12.65;;
34872;SDS011;21084;51.098;14.506;2022-12-26T06:51:22;25.30;;;12.93;;
34872;SDS011;21084;51.098;14.506;2022-12-26T06:53:53;21.02;;;12.35;;
34872;SDS011;21084;51.098;14.506;2022-12-26T06:56:23;27.98;;;13.90;;
34872;SDS011;21084;51.098;14.506;2022-12-26T06:58:53;22.30;;;13.13;;
34872;SDS011;21084;51.098;14.506;2022-12-26T07:01:23;30.42;;;16.27;;
34872;SDS011;21084;51.098;14.506;2022-12-26T07:03:52;27.25;;;15.40;;
34872;SDS011;21084;51.098;14.506;2022-12-26T07:06:22;38.13;;;19.67;;
34872;SDS011;21084;51.098;14.506;2022-12-26T07:08:55;71.00;;;50.17;;
34872;SDS011;21084;51.098;14.506;2022-12-26T07:11:25;62.17;;;38.33;;
34872;SDS011;21084;51.098;14.506;2022-12-26T07:13:55;36.05;;;20.33;;
34872;SDS011;21084;51.098;14.506;2022-12-26T07:16:24;61.25;;;32.70;;
34872;SDS011;21084;51.098;14.506;2022-12-26T07:18:54;30.93;;;19.07;;
34872;SDS011;21084;51.098;14.506;2022-12-26T07:21:24;29.17;;;15.77;;
34872;SDS011;21084;51.098;14.506;2022-12-26T07:23:54;38.53;;;23.38;;
34872;SDS011;21084;51.098;14.506;2022-12-26T07:26:24;31.20;;;17.17;;
34872;SDS011;21084;51.098;14.506;2022-12-26T07:28:53;23.90;;;13.68;;
34872;SDS011;21084;51.098;14.506;2022-12-26T07:31:22;30.27;;;15.57;;
34872;SDS011;21084;51.098;14.506;2022-12-26T07:33:54;26.50;;;15.40;;
34872;SDS011;21084;51.098;14.506;2022-12-26T07:36:24;30.27;;;18.63;;
34872;SDS011;21084;51.098;14.506;2022-12-26T07:38:55;45.58;;;27.88;;
34872;SDS011;21084;51.098;14.506;2022-12-26T07:41:23;24.17;;;15.40;;
34872;SDS011;21084;51.098;14.506;2022-12-26T07:44:09;24.15;;;13.80;;
34872;SDS011;21084;51.098;14.506;2022-12-26T07:46:38;30.52;;;17.50;;
34872;SDS011;21084;51.098;14.506;2022-12-26T07:49:07;22.67;;;12.98;;
34872;SDS011;21084;51.098;14.506;2022-12-26T07:51:38;25.25;;;14.18;;
34872;SDS011;21084;51.098;14.506;2022-12-26T07:54:08;27.05;;;14.00;;
34872;SDS011;21084;51.098;14.506;2022-12-26T07:56:40;30.85;;;15.88;;
34872;SDS011;21084;51.098;14.506;2022-12-26T07:59:11;85.43;;;44.07;;
34872;SDS011;21084;51.098;14.506;2022-12-26T08:01:42;109.28;;;56.55;;
34872;SDS011;21084;51.098;14.506;2022-12-26T08:04:11;53.00;;;31.38;;
34872;SDS011;21084;51.098;14.506;2022-12-26T08:06:40;38.50;;;21.60;;
34872;SDS011;21084;51.098;14.506;2022-12-26T08:09:12;36.50;;;17.80;;
34872;SDS011;21084;51.098;14.506;2022-12-26T08:11:42;27.10;;;14.43;;
34872;SDS011;21084;51.098;14.506;2022-12-26T08:14:11;29.75;;;18.48;;
34872;SDS011;21084;51.098;14.506;2022-12-26T08:16:42;32.38;;;18.17;;
34872;SDS011;21084;51.098;14.506;2022-12-26T08:19:18;24.33;;;15.43;;
34872;SDS011;21084;51.098;14.506;2022-12-26T08:21:47;35.60;;;21.13;;
34872;SDS011;21084;51.098;14.506;2022-12-26T08:24:17;34.58;;;21.95;;
34872;SDS011;21084;51.098;14.506;2022-12-26T08:26:46;30.40;;;17.73;;
34872;SDS011;21084;51.098;14.506;2022-12-26T08:29:14;25.00;;;15.93;;
34872;SDS011;21084;51.098;14.506;2022-12-26T08:31:43;22.77;;;13.97;;
34872;SDS011;21084;51.098;14.506;2022-12-26T08:34:12;22.60;;;15.55;;
34872;SDS011;21084;51.098;14.506;2022-12-26T08:36:41;22.17;;;13.95;;
34872;SDS011;21084;51.098;14.506;2022-12-26T08:39:10;23.80;;;13.57;;
34872;SDS011;21084;51.098;14.506;2022-12-26T08:41:40;19.63;;;12.77;;
34872;SDS011;21084;51.098;14.506;2022-12-26T08:44:09;25.38;;;13.95;;
34872;SDS011;21084;51.098;14.506;2022-12-26T08:46:55;23.35;;;13.40;;
34872;SDS011;21084;51.098;14.506;2022-12-26T08:49:24;27.73;;;12.57;;
34872;SDS011;21084;51.098;14.506;2022-12-26T08:51:52;20.70;;;10.77;;
34872;SDS011;21084;51.098;14.506;2022-12-26T08:54:21;20.50;;;10.25;;
34872;SDS011;21084;51.098;14.506;2022-12-26T08:56:51;16.45;;;9.75;;
34872;SDS011;21084;51.098;14.506;2022-12-26T08:59:20;15.55;;;8.73;;
34872;SDS011;21084;51.098;14.506;2022-12-26T09:01:48;18.30;;;9.23;;
34872;SDS011;21084;51.098;14.506;2022-12-26T09:04:17;18.40;;;9.50;;
34872;SDS011;21084;51.098;14.506;2022-12-26T09:06:46;16.33;;;8.57;;
34872;SDS011;21084;51.098;14.506;2022-12-26T09:09:14;14.63;;;8.75;;
34872;SDS011;21084;51.098;14.506;2022-12-26T09:11:43;16.63;;;10.43;;
34872;SDS011;21084;51.098;14.506;2022-12-26T09:14:13;17.30;;;10.07;;
34872;SDS011;21084;51.098;14.506;2022-12-26T09:16:42;18.95;;;11.10;;
34872;SDS011;21084;51.098;14.506;2022-12-26T09:19:17;19.52;;;11.05;;
34872;SDS011;21084;51.098;14.506;2022-12-26T09:21:46;32.17;;;19.80;;
34872;SDS011;21084;51.098;14.506;2022-12-26T09:24:36;35.72;;;21.52;;
34872;SDS011;21084;51.098;14.506;2022-12-26T09:27:04;17.38;;;11.32;;
34872;SDS011;21084;51.098;14.506;2022-12-26T09:29:34;24.90;;;16.40;;
34872;SDS011;21084;51.098;14.506;2022-12-26T09:32:04;15.82;;;8.00;;
34872;SDS011;21084;51.098;14.506;2022-12-26T09:34:33;16.85;;;9.98;;
34872;SDS011;21084;51.098;14.506;2022-12-26T09:37:01;26.13;;;14.60;;
34872;SDS011;21084;51.098;14.506;2022-12-26T09:39:30;19.58;;;11.93;;
34872;SDS011;21084;51.098;14.506;2022-12-26T09:42:01;14.90;;;7.82;;
34872;SDS011;21084;51.098;14.506;2022-12-26T09:44:39;13.18;;;7.50;;
34872;SDS011;21084;51.098;14.506;2022-12-26T09:47:18;10.57;;;6.40;;
34872;SDS011;21084;51.098;14.506;2022-12-26T09:49:56;12.25;;;7.05;;
34872;SDS011;21084;51.098;14.506;2022-12-26T09:52:33;10.95;;;6.13;;
34872;SDS011;21084;51.098;14.506;2022-12-26T09:55:14;11.48;;;7.15;;
34872;SDS011;21084;51.098;14.506;2022-12-26T09:58:03;12.20;;;6.75;;
34872;SDS011;21084;51.098;14.506;2022-12-26T10:00:42;10.35;;;6.38;;
34872;SDS011;21084;51.098;14.506;2022-12-26T10:03:15;11.50;;;6.28;;
34872;SDS011;21084;51.098;14.506;2022-12-26T10:05:47;10.65;;;6.38;;
34872;SDS011;21084;51.098;14.506;2022-12-26T10:08:39;11.35;;;6.15;;
34872;SDS011;21084;51.098;14.506;2022-12-26T10:11:28;8.85;;;4.90;;
34872;SDS011;21084;51.098;14.506;2022-12-26T10:14:07;9.27;;;4.80;;
34872;SDS011;21084;51.098;14.506;2022-12-26T10:16:50;8.18;;;4.65;;
34872;SDS011;21084;51.098;14.506;2022-12-26T10:19:36;11.02;;;5.38;;
34872;SDS011;21084;51.098;14.506;2022-12-26T10:22:30;7.80;;;4.32;;
34872;SDS011;21084;51.098;14.506;2022-12-26T10:25:20;9.15;;;4.68;;
34872;SDS011;21084;51.098;14.506;2022-12-26T10:27:59;8.50;;;5.70;;
34872;SDS011;21084;51.098;14.506;2022-12-26T10:30:36;11.80;;;6.10;;
34872;SDS011;21084;51.098;14.506;2022-12-26T10:33:11;12.05;;;5.45;;
34872;SDS011;21084;51.098;14.506;2022-12-26T10:35:43;9.30;;;5.25;;
34872;SDS011;21084;51.098;14.506;2022-12-26T10:38:14;9.13;;;4.68;;
34872;SDS011;21084;51.098;14.506;2022-12-26T10:40:53;9.23;;;4.43;;
34872;SDS011;21084;51.098;14.506;2022-12-26T10:43:26;8.40;;;4.85;;
34872;SDS011;21084;51.098;14.506;2022-12-26T10:46:02;9.02;;;4.90;;
34872;SDS011;21084;51.098;14.506;2022-12-26T10:48:45;8.63;;;4.85;;
34872;SDS011;21084;51.098;14.506;2022-12-26T10:51:14;9.38;;;4.90;;
34872;SDS011;21084;51.098;14.506;2022-12-26T10:53:45;8.10;;;4.83;;
34872;SDS011;21084;51.098;14.506;2022-12-26T10:56:16;7.95;;;5.20;;
34872;SDS011;21084;51.098;14.506;2022-12-26T10:58:47;9.68;;;5.75;;
34872;SDS011;21084;51.098;14.506;2022-12-26T11:01:29;11.90;;;6.47;;
34872;SDS011;21084;51.098;14.506;2022-12-26T11:04:01;9.38;;;6.13;;
34872;SDS011;21084;51.098;14.506;2022-12-26T11:06:31;9.00;;;5.57;;
34872;SDS011;21084;51.098;14.506;2022-12-26T11:09:04;11.98;;;6.38;;
34872;SDS011;21084;51.098;14.506;2022-12-26T11:11:34;13.98;;;6.32;;
34872;SDS011;21084;51.098;14.506;2022-12-26T11:14:26;15.85;;;5.93;;
34872;SDS011;21084;51.098;14.506;2022-12-26T11:17:00;13.15;;;6.32;;
34872;SDS011;21084;51.098;14.506;2022-12-26T11:19:33;11.02;;;5.97;;
34872;SDS011;21084;51.098;14.506;2022-12-26T11:22:20;10.95;;;5.30;;
34872;SDS011;21084;51.098;14.506;2022-12-26T11:25:01;9.90;;;5.32;;
34872;SDS011;21084;51.098;14.506;2022-12-26T11:27:39;12.32;;;5.78;;
34872;SDS011;21084;51.098;14.506;2022-12-26T11:30:17;11.60;;;6.43;;
34872;SDS011;21084;51.098;14.506;2022-12-26T11:33:03;11.65;;;6.10;;
34872;SDS011;21084;51.098;14.506;2022-12-26T11:35:51;10.60;;;5.93;;
34872;SDS011;21084;51.098;14.506;2022-12-26T11:38:24;13.18;;;6.05;;
34872;SDS011;21084;51.098;14.506;2022-12-26T11:41:12;9.52;;;5.78;;
34872;SDS011;21084;51.098;14.506;2022-12-26T11:44:04;10.93;;;5.70;;
34872;SDS011;21084;51.098;14.506;2022-12-26T11:46:43;12.75;;;6.20;;
34872;SDS011;21084;51.098;14.506;2022-12-26T11:49:21;10.52;;;5.47;;
34872;SDS011;21084;51.098;14.506;2022-12-26T11:51:53;10.23;;;5.68;;
34872;SDS011;21084;51.098;14.506;2022-12-26T11:54:29;9.95;;;5.90;;
34872;SDS011;21084;51.098;14.506;2022-12-26T11:57:11;9.32;;;5.32;;
34872;SDS011;21084;51.098;14.506;2022-12-26T11:59:44;11.45;;;5.20;;
34872;SDS011;21084;51.098;14.506;2022-12-26T12:02:14;9.27;;;5.78;;
34872;SDS011;21084;51.098;14.506;2022-12-26T12:04:50;8.55;;;4.90;;
34872;SDS011;21084;51.098;14.506;2022-12-26T12:07:35;10.38;;;5.63;;
34872;SDS011;21084;51.098;14.506;2022-12-26T12:10:24;12.00;;;5.32;;
34872;SDS011;21084;51.098;14.506;2022-12-26T12:13:20;13.63;;;5.60;;
34872;SDS011;21084;51.098;14.506;2022-12-26T12:15:59;13.63;;;6.25;;
34872;SDS011;21084;51.098;14.506;2022-12-26T12:18:40;10.25;;;5.63;;
34872;SDS011;21084;51.098;14.506;2022-12-26T12:21:17;11.70;;;6.53;;
34872;SDS011;21084;51.098;14.506;2022-12-26T12:24:09;12.07;;;5.65;;
34872;SDS011;21084;51.098;14.506;2022-12-26T12:26:51;13.60;;;6.00;;
34872;SDS011;21084;51.098;14.506;2022-12-26T12:30:05;13.35;;;6.53;;
34872;SDS011;21084;51.098;14.506;2022-12-26T12:32:44;13.85;;;7.18;;
34872;SDS011;21084;51.098;14.506;2022-12-26T12:35:47;17.98;;;6.90;;
34872;SDS011;21084;51.098;14.506;2022-12-26T12:38:29;12.38;;;6.65;;
34872;SDS011;21084;51.098;14.506;2022-12-26T12:41:05;15.20;;;7.70;;
34872;SDS011;21084;51.098;14.506;2022-12-26T12:43:49;11.10;;;6.80;;
34872;SDS011;21084;51.098;14.506;2022-12-26T12:46:26;12.05;;;7.30;;
34872;SDS011;21084;51.098;14.506;2022-12-26T12:49:05;16.58;;;8.32;;
34872;SDS011;21084;51.098;14.506;2022-12-26T12:51:48;15.27;;;7.70;;
34872;SDS011;21084;51.098;14.506;2022-12-26T12:57:26;13.73;;;6.57;;
34872;SDS011;21084;51.098;14.506;2022-12-26T13:00:07;11.60;;;6.15;;
34872;SDS011;21084;51.098;14.506;2022-12-26T13:02:41;9.75;;;5.80;;
34872;SDS011;21084;51.098;14.506;2022-12-26T13:05:16;12.75;;;6.53;;
34872;SDS011;21084;51.098;14.506;2022-12-26T13:07:51;9.57;;;5.28;;
34872;SDS011;21084;51.098;14.506;2022-12-26T13:10:26;11.82;;;4.57;;
34872;SDS011;21084;51.098;14.506;2022-12-26T13:13:01;8.02;;;4.57;;
34872;SDS011;21084;51.098;14.506;2022-12-26T13:15:41;8.60;;;4.03;;
34872;SDS011;21084;51.098;14.506;2022-12-26T13:18:15;8.23;;;4.28;;
34872;SDS011;21084;51.098;14.506;2022-12-26T13:20:49;9.80;;;4.90;;
34872;SDS011;21084;51.098;14.506;2022-12-26T13:23:21;7.90;;;4.25;;
34872;SDS011;21084;51.098;14.506;2022-12-26T13:26:23;9.02;;;4.25;;
34872;SDS011;21084;51.098;14.506;2022-12-26T13:28:57;9.35;;;4.47;;
34872;SDS011;21084;51.098;14.506;2022-12-26T13:31:32;7.82;;;4.43;;
34872;SDS011;21084;51.098;14.506;2022-12-26T13:34:03;9.50;;;4.65;;
34872;SDS011;21084;51.098;14.506;2022-12-26T13:36:41;8.88;;;4.70;;
34872;SDS011;21084;51.098;14.506;2022-12-26T13:39:24;9.73;;;4.60;;
34872;SDS011;21084;51.098;14.506;2022-12-26T13:41:58;8.00;;;4.53;;
34872;SDS011;21084;51.098;14.506;2022-12-26T13:47:29;10.93;;;5.10;;
34872;SDS011;21084;51.098;14.506;2022-12-26T13:53:07;4.72;;;2.40;;
34872;SDS011;21084;51.098;14.506;2022-12-26T13:55:54;4.80;;;1.60;;
34872;SDS011;21084;51.098;14.506;2022-12-26T13:58:28;2.70;;;1.48;;
34872;SDS011;21084;51.098;14.506;2022-12-26T14:01:16;4.05;;;1.83;;
34872;SDS011;21084;51.098;14.506;2022-12-26T14:03:59;4.18;;;1.90;;
34872;SDS011;21084;51.098;14.506;2022-12-26T14:06:56;2.47;;;1.70;;
34872;SDS011;21084;51.098;14.506;2022-12-26T14:09:39;4.22;;;2.47;;
34872;SDS011;21084;51.098;14.506;2022-12-26T14:15:21;5.00;;;3.05;;
34872;SDS011;21084;51.098;14.506;2022-12-26T14:18:09;7.68;;;3.97;;
34872;SDS011;21084;51.098;14.506;2022-12-26T14:20:50;5.85;;;3.17;;
34872;SDS011;21084;51.098;14.506;2022-12-26T14:23:28;3.03;;;2.08;;
34872;SDS011;21084;51.098;14.506;2022-12-26T14:26:09;3.83;;;2.17;;
34872;SDS011;21084;51.098;14.506;2022-12-26T14:28:51;5.07;;;2.00;;
34872;SDS011;21084;51.098;14.506;2022-12-26T14:31:28;4.32;;;1.60;;
34872;SDS011;21084;51.098;14.506;2022-12-26T14:34:05;2.80;;;1.95;;
34872;SDS011;21084;51.098;14.506;2022-12-26T14:36:46;2.25;;;1.58;;
34872;SDS011;21084;51.098;14.506;2022-12-26T14:39:24;1.88;;;1.27;;
34872;SDS011;21084;51.098;14.506;2022-12-26T14:42:15;2.15;;;1.20;;
34872;SDS011;21084;51.098;14.506;2022-12-26T14:45:03;1.58;;;1.20;;
34872;SDS011;21084;51.098;14.506;2022-12-26T14:47:40;2.28;;;1.35;;
34872;SDS011;21084;51.098;14.506;2022-12-26T14:55:55;5.72;;;1.70;;
34872;SDS011;21084;51.098;14.506;2022-12-26T14:58:32;5.25;;;1.80;;
34872;SDS011;21084;51.098;14.506;2022-12-26T15:04:19;4.65;;;2.28;;
34872;SDS011;21084;51.098;14.506;2022-12-26T15:07:21;7.85;;;2.63;;
34872;SDS011;21084;51.098;14.506;2022-12-26T15:10:19;5.20;;;1.98;;
34872;SDS011;21084;51.098;14.506;2022-12-26T15:16:09;4.60;;;1.75;;
34872;SDS011;21084;51.098;14.506;2022-12-26T15:21:57;4.93;;;1.60;;
34872;SDS011;21084;51.098;14.506;2022-12-26T15:28:02;3.42;;;1.67;;
34872;SDS011;21084;51.098;14.506;2022-12-26T15:31:05;2.70;;;1.80;;
34872;SDS011;21084;51.098;14.506;2022-12-26T15:33:48;2.35;;;1.63;;
34872;SDS011;21084;51.098;14.506;2022-12-26T15:36:23;3.05;;;1.90;;
34872;SDS011;21084;51.098;14.506;2022-12-26T15:38:59;2.65;;;1.60;;
34872;SDS011;21084;51.098;14.506;2022-12-26T15:41:34;4.97;;;1.85;;
34872;SDS011;21084;51.098;14.506;2022-12-26T15:44:13;2.78;;;1.58;;
34872;SDS011;21084;51.098;14.506;2022-12-26T15:46:54;3.05;;;1.70;;